Time;durP1;ratioP1;P1;durP2;ratioP2;P2;SDS_P1;SDS_P2;PMS_P1;PMS_P2;Temp;Humidity;BMP_temperature;BMP_pressure;BME280_temperature;BME280_humidity;BME280_pressure;Samples;Min_cycle;Max_cycle;Signal;HPM_P1;HPM_P2
2022/04/10 00:01:02;;;;;;;3.63;2.03;;;;;;;14.79;50.92;93326.63;5034971;28;20190;-60
2022/04/10 00:03:28;;;;;;;6.97;2.40;;;;;;;14.82;50.99;93359.53;5035557;28;20636;-61
2022/04/10 00:05:53;;;;;;;6.30;2.28;;;;;;;14.59;51.22;93343.63;5034817;28;20194;-63
2022/04/10 00:08:20;;;;;;;4.78;2.38;;;;;;;14.74;50.93;93336.66;5035083;28;20190;-62
2022/04/10 00:10:46;;;;;;;5.95;2.30;;;;;;;14.41;51.98;93328.75;5034820;28;20741;-61
2022/04/10 00:13:11;;;;;;;6.10;2.65;;;;;;;14.10;53.51;93311.16;5035113;28;20340;-63
2022/04/10 00:15:37;;;;;;;5.38;2.55;;;;;;;14.29;52.97;93327.66;5034676;28;20753;-60
2022/04/10 00:18:02;;;;;;;7.07;2.05;;;;;;;14.36;51.81;93338.75;5034989;28;20662;-61
2022/04/10 00:20:28;;;;;;;4.68;2.10;;;;;;;13.95;52.39;93327.53;5034356;28;20198;-67
2022/04/10 00:22:54;;;;;;;5.10;2.17;;;;;;;13.79;52.82;93309.91;5032774;28;20268;-65
2022/04/10 00:25:20;;;;;;;5.35;2.33;;;;;;;13.98;52.76;93314.38;5034329;28;20735;-60
2022/04/10 00:27:47;;;;;;;5.65;2.22;;;;;;;14.28;51.94;93336.31;5034791;28;20190;-61
2022/04/10 00:30:15;;;;;;;5.28;2.38;;;;;;;14.27;51.83;93320.16;5032983;28;20186;-63
2022/04/10 00:32:41;;;;;;;6.45;2.05;;;;;;;14.35;51.26;93342.25;5034514;28;20178;-60
2022/04/10 00:35:08;;;;;;;4.75;2.20;;;;;;;14.26;51.55;93335.69;5034177;28;20178;-61
2022/04/10 00:37:35;;;;;;;4.30;2.20;;;;;;;14.01;52.92;93314.81;5034209;28;20636;-63
2022/04/10 00:40:01;;;;;;;4.80;2.53;;;;;;;14.05;53.03;93316.03;5034371;28;20167;-65
2022/04/10 00:42:33;;;;;;;5.03;2.43;;;;;;;14.06;54.15;93304.84;5034088;28;20667;-62
2022/04/10 00:44:59;;;;;;;8.13;3.00;;;;;;;13.88;54.46;93296.81;5032657;28;20244;-62
2022/04/10 00:47:24;;;;;;;7.27;2.63;;;;;;;14.15;54.35;93303.75;5034077;28;20689;-61
2022/04/10 00:49:50;;;;;;;7.68;3.13;;;;;;;14.20;54.67;93315.97;5032661;28;20610;-61
2022/04/10 00:52:17;;;;;;;6.40;3.10;;;;;;;14.20;54.57;93321.84;5034078;28;20214;-60
2022/04/10 00:54:43;;;;;;;8.77;2.45;;;;;;;14.29;54.95;93302.09;5034588;28;20182;-65
2022/04/10 00:57:10;;;;;;;14.68;3.03;;;;;;;14.25;55.33;93294.00;5033735;28;20199;-61
2022/04/10 00:59:42;;;;;;;7.65;2.85;;;;;;;14.33;54.75;93308.44;5034081;28;20671;-62
2022/04/10 01:02:07;;;;;;;10.25;2.70;;;;;;;14.44;54.88;93309.69;5033727;28;20206;-62
2022/04/10 01:04:33;;;;;;;6.57;2.80;;;;;;;14.74;54.45;93303.41;5033539;28;20209;-65
2022/04/10 01:07:00;;;;;;;5.10;3.00;;;;;;;14.32;55.50;93292.28;5033424;28;20264;-61
2022/04/10 01:09:26;;;;;;;6.80;2.80;;;;;;;13.77;57.02;93274.31;5033455;28;20277;-65
2022/04/10 01:11:53;;;;;;;4.93;3.28;;;;;;;14.37;56.18;93276.41;5033596;28;20260;-62
2022/04/10 01:14:19;;;;;;;7.03;3.27;;;;;;;14.16;57.04;93274.63;5033547;28;20244;-64
2022/04/10 01:16:47;;;;;;;5.82;3.22;;;;;;;14.43;55.95;93282.53;5033371;28;20271;-60
2022/04/10 01:19:15;;;;;;;7.97;3.33;;;;;;;14.29;56.88;93269.66;5032026;28;20238;-60
2022/04/10 01:21:44;;;;;;;5.63;2.58;;;;;;;14.01;56.50;93270.59;5033344;28;20711;-62
2022/04/10 01:24:11;;;;;;;5.00;2.90;;;;;;;13.58;57.55;93235.81;5033445;28;20623;-63
2022/04/10 01:26:37;;;;;;;8.52;3.22;;;;;;;13.60;57.65;93250.00;5039072;23;20232;-60
2022/04/10 01:29:07;;;;;;;3.47;2.50;;;;;;;13.76;57.18;93254.84;5033366;28;20273;-62
2022/04/10 01:31:36;;;;;;;8.47;3.00;;;;;;;13.72;57.07;93258.75;5033186;28;20324;-60
2022/04/10 01:34:07;;;;;;;5.03;2.47;;;;;;;13.62;57.98;93265.91;5033349;28;20561;-65
2022/04/10 01:36:34;;;;;;;6.25;3.50;;;;;;;13.76;57.91;93265.06;5033155;28;20198;-64
2022/04/10 01:39:02;;;;;;;7.60;3.00;;;;;;;13.88;57.71;93262.81;5033399;28;20186;-62
2022/04/10 01:41:28;;;;;;;5.83;3.13;;;;;;;13.67;58.71;93252.63;5033106;28;20636;-60
2022/04/10 01:43:56;;;;;;;6.35;3.33;;;;;;;13.91;57.81;93273.47;5032969;28;20209;-72
2022/04/10 01:46:23;;;;;;;7.40;3.53;;;;;;;14.08;57.71;93266.31;5032844;28;20695;-60
2022/04/10 01:48:49;;;;;;;6.88;3.00;;;;;;;13.72;59.26;93266.41;5032715;28;20179;-60
2022/04/10 01:51:15;;;;;;;5.13;2.97;;;;;;;13.73;59.45;93270.56;5032766;28;20268;-59
2022/04/10 01:53:41;;;;;;;6.13;2.83;;;;;;;13.85;58.83;93284.41;5032857;28;20178;-60
2022/04/10 01:56:08;;;;;;;8.33;3.47;;;;;;;13.52;59.73;93285.06;5033015;28;20205;-64
2022/04/10 01:58:52;;;;;;;11.43;3.50;;;;;;;13.80;58.57;93296.13;5032933;28;20178;-63
2022/04/10 02:01:18;;;;;;;7.32;3.00;;;;;;;13.68;59.47;93279.72;5032749;28;20248;-60
2022/04/10 02:03:46;;;;;;;11.53;3.33;;;;;;;13.64;59.33;93263.19;5032622;28;20591;-64
2022/04/10 02:06:14;;;;;;;10.07;3.90;;;;;;;13.66;59.94;93272.25;5032523;28;20287;-60
2022/04/10 02:08:42;;;;;;;8.10;3.45;;;;;;;13.72;59.60;93268.16;5032443;28;20175;-67
2022/04/10 02:11:15;;;;;;;9.43;3.33;;;;;;;13.51;59.98;93260.50;5031563;28;20568;-63
2022/04/10 02:13:41;;;;;;;6.10;3.35;;;;;;;13.72;59.52;93275.81;5032572;28;20178;-63
2022/04/10 02:16:11;;;;;;;8.15;3.58;;;;;;;13.99;59.53;93264.88;5032556;28;20202;-61
2022/04/10 02:18:36;;;;;;;7.72;3.33;;;;;;;13.62;60.21;93270.22;5032510;28;20589;-62
2022/04/10 02:21:03;;;;;;;12.30;3.50;;;;;;;13.53;60.79;93268.78;5032523;28;20216;-60
2022/04/10 02:23:29;;;;;;;8.73;4.47;;;;;;;13.39;61.17;93244.88;5032555;28;20209;-64
2022/04/10 02:25:54;;;;;;;9.52;4.05;;;;;;;13.46;60.87;93274.59;5032559;28;20695;-61
2022/04/10 02:28:20;;;;;;;8.85;4.70;;;;;;;13.42;60.60;93275.94;5032348;28;20177;-63
2022/04/10 02:30:45;;;;;;;10.77;4.13;;;;;;;13.18;61.58;93266.06;5030701;28;20210;-64
2022/04/10 02:33:11;;;;;;;9.05;4.22;;;;;;;13.33;60.95;93276.25;5031019;28;20550;-63
2022/04/10 02:35:36;;;;;;;10.70;4.20;;;;;;;12.99;62.68;93251.28;5030920;28;20260;-62
2022/04/10 02:38:02;;;;;;;9.83;4.57;;;;;;;13.44;61.88;93271.44;5032178;28;20190;-65
2022/04/10 02:40:27;;;;;;;8.93;4.10;;;;;;;13.45;62.28;93279.91;5032464;28;20598;-63
2022/04/10 02:42:52;;;;;;;7.60;4.15;;;;;;;13.69;62.03;93294.88;5032277;28;20217;-61
2022/04/10 02:45:18;;;;;;;7.13;3.45;;;;;;;13.51;60.96;93309.81;5032214;28;20206;-63
2022/04/10 02:47:44;;;;;;;8.63;4.83;;;;;;;13.06;62.23;93269.25;5031878;28;20707;-62
2022/04/10 02:50:09;;;;;;;8.50;4.23;;;;;;;13.23;62.19;93268.09;5032213;28;20182;-62
2022/04/10 02:52:35;;;;;;;10.37;4.17;;;;;;;13.30;62.75;93266.38;5014278;28;20189;-60
2022/04/10 02:55:00;;;;;;;10.45;4.30;;;;;;;13.41;60.93;93306.75;5031987;28;20190;-61
2022/04/10 02:57:26;;;;;;;10.57;4.57;;;;;;;13.00;62.68;93270.72;5031817;28;20188;-64
2022/04/10 02:59:51;;;;;;;10.17;4.90;;;;;;;13.14;62.04;93285.25;5032296;28;20190;-63
2022/04/10 03:02:17;;;;;;;11.77;4.67;;;;;;;13.25;61.56;93284.00;5031569;28;20694;-62
2022/04/10 03:04:42;;;;;;;9.57;4.30;;;;;;;13.21;61.88;93286.09;5030656;28;20225;-60
2022/04/10 03:07:08;;;;;;;9.57;4.30;;;;;;;13.39;62.04;93304.38;5031736;28;20580;-66
2022/04/10 03:09:33;;;;;;;12.77;4.57;;;;;;;13.15;60.89;93302.13;5030661;28;20189;-64
2022/04/10 03:11:58;;;;;;;9.87;4.70;;;;;;;13.20;61.56;93292.19;5030320;28;20711;-64
2022/04/10 03:14:24;;;;;;;9.93;4.90;;;;;;;13.26;62.18;93290.69;5031810;28;20677;-60
2022/04/10 03:16:49;;;;;;;9.87;4.40;;;;;;;13.56;61.99;93315.16;5031996;28;20690;-61
2022/04/10 03:19:15;;;;;;;8.03;4.07;;;;;;;13.58;61.27;93304.75;5031794;28;20523;-65
2022/04/10 03:21:40;;;;;;;7.67;3.90;;;;;;;13.64;61.98;93316.81;5031409;28;20191;-61
2022/04/10 03:24:06;;;;;;;11.03;4.80;;;;;;;13.69;60.15;93353.63;5031755;28;20305;-65
2022/04/10 03:26:32;;;;;;;11.03;4.93;;;;;;;13.26;61.86;93317.00;5031969;28;20237;-62
2022/04/10 03:28:57;;;;;;;8.20;4.13;;;;;;;13.34;62.76;93314.34;5031476;28;20179;-60
2022/04/10 03:31:23;;;;;;;7.70;4.20;;;;;;;13.31;62.42;93299.38;5031256;28;20271;-61
2022/04/10 03:33:49;;;;;;;7.85;4.60;;;;;;;13.14;63.54;93280.16;5031290;28;20706;-62
2022/04/10 03:36:15;;;;;;;9.27;4.83;;;;;;;13.56;62.79;93315.16;5031384;28;20206;-61
2022/04/10 03:38:41;;;;;;;7.80;4.50;;;;;;;13.36;62.31;93337.13;5031313;28;20174;-61
2022/04/10 03:41:06;;;;;;;8.97;4.70;;;;;;;12.92;62.41;93314.19;5031369;28;20212;-61
2022/04/10 03:43:35;;;;;;;11.40;4.90;;;;;;;12.35;66.72;93273.19;5031401;28;20220;-62
2022/04/10 03:46:00;;;;;;;10.60;4.40;;;;;;;12.29;67.17;93296.03;5031155;28;20230;-65
2022/04/10 03:48:26;;;;;;;12.33;5.07;;;;;;;12.72;65.53;93322.53;5031524;28;20257;-60
2022/04/10 03:50:51;;;;;;;9.23;4.40;;;;;;;12.97;64.78;93344.28;5031617;28;20203;-62
2022/04/10 03:53:17;;;;;;;12.53;4.33;;;;;;;12.86;72.61;93291.13;5029977;28;20216;-63
2022/04/10 03:55:43;;;;;;;9.13;3.90;;;;;;;12.83;64.87;93368.78;5031568;28;20217;-62
2022/04/10 03:58:08;;;;;;;7.40;4.53;;;;;;;12.85;64.79;93355.84;5030741;28;20178;-62
2022/04/10 04:00:34;;;;;;;13.43;4.93;;;;;;;13.14;64.08;93366.91;5035324;28;20206;-61
2022/04/10 04:03:00;;;;;;;9.83;4.57;;;;;;;12.92;65.59;93357.53;5034886;28;20309;-63
2022/04/10 04:05:25;;;;;;;12.17;5.43;;;;;;;12.56;67.14;93342.09;5035255;28;20241;-62
2022/04/10 04:07:51;;;;;;;8.20;4.70;;;;;;;12.61;66.58;93374.72;5035099;28;20243;-66
2022/04/10 04:10:35;;;;;;;5.93;4.80;;;;;;;12.81;66.06;93367.38;5033638;28;20212;-60
2022/04/10 04:13:01;;;;;;;10.50;5.20;;;;;;;12.68;67.16;93354.44;5034602;28;20267;-63
2022/04/10 04:15:27;;;;;;;7.57;4.30;;;;;;;12.89;66.72;93341.81;5034988;28;20210;-60
2022/04/10 04:17:52;;;;;;;10.90;5.03;;;;;;;12.60;68.75;93342.56;5034838;28;20184;-62
2022/04/10 04:20:18;;;;;;;7.97;5.07;;;;;;;12.80;68.36;93341.09;5034869;28;20273;-64
2022/04/10 04:22:49;;;;;;;11.30;5.47;;;;;;;12.78;68.84;93342.22;5033284;28;20236;-61
2022/04/10 04:25:23;;;;;;;10.27;5.47;;;;;;;12.62;70.01;93354.16;5034926;28;20237;-61
2022/04/10 04:27:49;;;;;;;16.60;9.33;;;;;;;12.17;72.46;93325.44;5034340;28;20570;-63
2022/04/10 04:32:58;;;;;;;12.27;6.67;;;;;;;11.67;81.33;93324.22;5013939;28;20206;-62
2022/04/10 04:35:26;;;;;;;7.87;6.57;;;;;;;11.89;82.39;93350.66;5014436;28;20210;-63
2022/04/10 04:37:52;;;;;;;11.23;7.67;;;;;;;11.77;83.91;93349.44;5014427;28;20254;-65
2022/04/10 04:40:17;;;;;;;12.80;7.93;;;;;;;11.65;85.88;93343.13;5014480;28;20711;-60
2022/04/10 04:42:43;;;;;;;12.70;8.43;;;;;;;11.50;86.65;93370.25;5014269;28;20645;-66
2022/04/10 04:45:09;;;;;;;11.20;8.50;;;;;;;11.43;89.32;93371.88;5014269;28;20218;-64
2022/04/10 04:47:36;;;;;;;12.43;9.93;;;;;;;11.14;91.11;93397.09;5014202;28;20235;-62
2022/04/10 04:50:01;;;;;;;15.07;11.07;;;;;;;10.73;94.42;93393.88;5014137;28;20293;-62
2022/04/10 04:52:26;;;;;;;16.60;11.23;;;;;;;10.36;96.43;93406.31;5014250;28;20261;-61
2022/04/10 04:54:52;;;;;;;17.70;11.37;;;;;;;10.41;97.04;93406.59;5025359;23;20229;-62
2022/04/10 04:57:17;;;;;;;17.10;12.77;;;;;;;9.86;100.00;93409.72;5034019;28;20194;-62
2022/04/10 04:59:43;;;;;;;17.30;12.37;;;;;;;9.56;100.00;93409.47;5033978;28;20182;-61
2022/04/10 05:02:08;;;;;;;21.40;13.17;;;;;;;9.40;100.00;93410.22;5032466;28;20202;-61
2022/04/10 05:04:34;;;;;;;18.50;13.53;;;;;;;9.26;100.00;93420.97;5033802;28;20244;-60
2022/04/10 05:06:59;;;;;;;19.53;14.30;;;;;;;9.21;100.00;93435.84;5033674;28;20580;-62
2022/04/10 05:09:25;;;;;;;26.47;16.67;;;;;;;9.10;100.00;93436.09;5033769;28;20186;-64
2022/04/10 05:11:50;;;;;;;18.80;13.63;;;;;;;8.88;100.00;93426.47;5033577;28;20214;-63
2022/04/10 05:14:16;;;;;;;16.87;13.03;;;;;;;9.11;100.00;93441.00;5032394;28;20190;-62
2022/04/10 05:16:41;;;;;;;16.93;11.73;;;;;;;9.37;100.00;93453.66;5033467;28;20584;-62
2022/04/10 05:19:07;;;;;;;16.97;12.50;;;;;;;9.33;100.00;93447.31;5032257;28;20186;-63
2022/04/10 05:21:32;;;;;;;19.50;13.57;;;;;;;9.29;100.00;93449.34;5033395;28;20244;-64
2022/04/10 05:23:58;;;;;;;18.03;12.77;;;;;;;9.33;100.00;93462.53;5033377;28;20221;-64
2022/04/10 05:26:23;;;;;;;16.20;13.20;;;;;;;9.31;100.00;93461.88;5033258;28;20201;-62
2022/04/10 05:28:48;;;;;;;18.83;13.57;;;;;;;9.17;100.00;93459.91;5032063;28;20663;-61
2022/04/10 05:31:14;;;;;;;17.77;13.00;;;;;;;9.17;100.00;93462.44;5033475;28;20190;-62
2022/04/10 05:33:40;;;;;;;16.87;12.53;;;;;;;9.30;100.00;93472.97;5033033;28;20171;-62
2022/04/10 05:36:06;;;;;;;16.63;12.43;;;;;;;8.86;100.00;93473.97;5033208;28;20581;-62
2022/04/10 05:38:31;;;;;;;16.83;12.43;;;;;;;8.69;100.00;93467.19;5033256;28;20640;-62
2022/04/10 05:40:58;;;;;;;21.00;13.17;;;;;;;8.59;100.00;93463.94;5040353;23;20238;-63
2022/04/10 05:43:24;;;;;;;19.00;13.47;;;;;;;8.33;100.00;93479.91;5032871;28;20214;-63
2022/04/10 05:45:51;;;;;;;18.73;12.70;;;;;;;8.16;100.00;93462.94;5033064;28;20225;-61
2022/04/10 05:48:17;;;;;;;19.77;12.83;;;;;;;8.22;100.00;93469.97;5033010;28;20181;-65
2022/04/10 05:50:43;;;;;;;19.73;13.77;;;;;;;8.12;100.00;93460.88;5033083;28;20277;-64
2022/04/10 05:53:09;;;;;;;16.73;13.17;;;;;;;7.95;100.00;93470.03;5032957;28;20574;-62
2022/04/10 05:55:35;;;;;;;17.70;12.40;;;;;;;7.84;100.00;93471.97;5032948;28;20752;-63
2022/04/10 05:58:01;;;;;;;17.73;11.23;;;;;;;7.72;100.00;93471.38;5032781;28;20269;-60
2022/04/10 06:00:27;;;;;;;17.10;12.40;;;;;;;7.72;100.00;93478.94;5032780;28;20285;-61
2022/04/10 06:02:53;;;;;;;18.03;11.43;;;;;;;7.65;100.00;93488.06;5032636;28;20276;-64
2022/04/10 06:05:19;;;;;;;19.23;12.47;;;;;;;7.58;100.00;93494.59;5032603;28;20194;-61
2022/04/10 06:07:44;;;;;;;17.67;12.30;;;;;;;7.62;100.00;93503.50;5031342;28;20189;-63
2022/04/10 06:10:10;;;;;;;18.87;11.60;;;;;;;7.65;100.00;93511.59;5032633;28;20190;-63
2022/04/10 06:12:36;;;;;;;16.80;12.57;;;;;;;7.49;100.00;93511.41;5032565;28;20224;-64
2022/04/10 06:15:01;;;;;;;17.40;11.67;;;;;;;7.44;100.00;93512.75;5032621;28;20250;-64
2022/04/10 06:17:27;;;;;;;20.27;13.40;;;;;;;7.53;100.00;93506.88;5031221;28;20178;-60
2022/04/10 06:19:54;;;;;;;19.90;12.50;;;;;;;7.48;100.00;93519.94;5032486;28;20289;-62
2022/04/10 06:22:19;;;;;;;15.80;9.93;;;;;;;7.33;100.00;93526.38;5031894;28;20266;-64
2022/04/10 06:24:45;;;;;;;16.03;10.13;;;;;;;7.32;100.00;93523.97;5032110;28;20300;-61
2022/04/10 06:27:10;;;;;;;12.93;9.30;;;;;;;7.37;100.00;93514.28;5032544;28;20210;-60
2022/04/10 06:29:36;;;;;;;13.03;8.93;;;;;;;7.31;100.00;93517.34;5032197;28;20257;-62
2022/04/10 06:32:07;;;;;;;9.33;8.07;;;;;;;7.24;100.00;93527.22;5038929;23;20225;-61
2022/04/10 06:34:32;;;;;;;13.93;9.57;;;;;;;7.26;100.00;93517.75;5030925;28;20625;-63
2022/04/10 06:36:58;;;;;;;14.27;9.03;;;;;;;7.37;100.00;93531.97;5032433;28;20571;-62
2022/04/10 06:39:23;;;;;;;14.03;9.07;;;;;;;7.21;100.00;93536.81;5031108;28;20567;-61
2022/04/10 06:41:49;;;;;;;10.77;7.97;;;;;;;7.09;100.00;93527.78;5032371;28;20206;-63
2022/04/10 06:44:14;;;;;;;9.00;7.00;;;;;;;7.17;100.00;93525.38;5031833;28;20243;-62
2022/04/10 06:46:41;;;;;;;9.17;7.10;;;;;;;7.08;100.00;93526.19;5032115;28;20592;-67
2022/04/10 06:49:25;;;;;;;10.20;6.50;;;;;;;7.08;100.00;93529.50;5032031;28;20251;-65
2022/04/10 06:51:50;;;;;;;9.50;6.23;;;;;;;7.12;100.00;93527.50;5032148;28;20213;-65
2022/04/10 06:54:16;;;;;;;7.87;5.83;;;;;;;7.05;100.00;93532.28;5032027;28;20639;-62
2022/04/10 06:56:41;;;;;;;10.10;6.50;;;;;;;7.14;100.00;93528.97;5030680;28;20214;-62
2022/04/10 06:59:07;;;;;;;7.10;5.40;;;;;;;7.17;100.00;93526.16;5031938;28;20184;-61
2022/04/10 07:01:33;;;;;;;7.07;5.40;;;;;;;7.26;100.00;93522.00;5032129;28;20585;-63
2022/04/10 07:03:58;;;;;;;7.20;5.43;;;;;;;7.04;100.00;93518.09;5030469;28;20202;-64
2022/04/10 07:06:24;;;;;;;6.33;4.67;;;;;;;7.12;100.00;93527.50;5031761;28;20210;-60
2022/04/10 07:08:49;;;;;;;9.40;6.43;;;;;;;7.18;100.00;93532.00;5031754;28;20182;-61
2022/04/10 07:11:15;;;;;;;7.60;5.33;;;;;;;7.12;100.00;93537.59;5031481;28;20274;-63
2022/04/10 07:13:40;;;;;;;6.23;4.10;;;;;;;7.03;100.00;93540.97;5031712;28;20262;-61
2022/04/10 07:16:06;;;;;;;4.70;4.20;;;;;;;7.00;100.00;93544.56;5031618;28;20213;-61
2022/04/10 07:18:31;;;;;;;4.40;4.00;;;;;;;6.84;100.00;93533.41;5030473;28;20189;-63
2022/04/10 07:20:57;;;;;;;5.33;4.37;;;;;;;6.95;100.00;93533.28;5031631;28;20201;-63
2022/04/10 07:23:42;;;;;;;5.77;4.17;;;;;;;8.73;100.00;93547.03;5031696;28;20209;-61
2022/04/10 07:26:08;;;;;;;5.93;4.20;;;;;;;7.74;100.00;93535.25;5031550;28;20213;-61
2022/04/10 07:28:34;;;;;;;5.10;3.77;;;;;;;7.55;100.00;93525.25;5030225;28;20229;-62
2022/04/10 07:31:00;;;;;;;4.50;3.57;;;;;;;7.23;100.00;93524.81;5031571;28;20209;-61
2022/04/10 07:33:26;;;;;;;4.50;3.97;;;;;;;7.08;100.00;93528.72;5034219;28;20207;-62
2022/04/10 07:35:52;;;;;;;4.70;3.90;;;;;;;7.12;100.00;93528.31;5035329;28;20267;-62
2022/04/10 07:38:17;;;;;;;4.57;3.20;;;;;;;7.06;100.00;93530.56;5033966;28;20196;-61
2022/04/10 07:40:43;;;;;;;3.70;3.10;;;;;;;7.05;100.00;93523.94;5035100;28;20702;-61
2022/04/10 07:43:09;;;;;;;3.17;2.83;;;;;;;7.08;100.00;93541.34;5035215;28;20231;-64
2022/04/10 07:48:18;;;;;;;4.53;2.77;;;;;;;7.81;100.00;93565.84;5035306;28;20192;-64
2022/04/10 07:50:44;;;;;;;4.23;3.07;;;;;;;7.37;100.00;93544.59;5035264;28;20288;-60
2022/04/10 07:53:10;;;;;;;3.47;2.17;;;;;;;7.29;100.00;93535.16;5035097;28;20252;-64
2022/04/10 07:55:35;;;;;;;2.87;2.33;;;;;;;7.57;100.00;93536.78;5033823;28;20230;-61
2022/04/10 07:58:01;;;;;;;5.00;2.37;;;;;;;7.64;100.00;93552.19;5035550;28;20273;-64
2022/04/10 08:00:33;;;;;;;3.03;2.17;;;;;;;7.44;100.00;93548.97;5033773;28;20263;-65
2022/04/10 08:02:59;;;;;;;4.00;2.73;;;;;;;7.44;100.00;93565.84;5033809;28;20194;-64
2022/04/10 08:05:25;;;;;;;3.57;2.30;;;;;;;7.29;100.00;93557.13;5035159;28;20210;-62
2022/04/10 08:07:50;;;;;;;2.83;2.03;;;;;;;7.28;100.00;93573.22;5035498;28;20190;-63
2022/04/10 08:10:16;;;;;;;2.60;1.70;;;;;;;7.22;100.00;93558.59;5035054;28;20651;-63
2022/04/10 08:12:43;;;;;;;1.70;1.60;;;;;;;7.19;100.00;93564.72;5035397;28;20188;-61
2022/04/10 08:15:09;;;;;;;2.50;1.60;;;;;;;7.10;100.00;93565.53;5035008;28;20189;-66
2022/04/10 08:17:35;;;;;;;1.30;1.20;;;;;;;7.10;100.00;93569.78;5035227;28;20229;-64
2022/04/10 08:20:04;;;;;;;1.90;1.33;;;;;;;7.13;100.00;93560.22;5034897;28;20631;-64
2022/04/10 08:22:34;;;;;;;5.67;1.43;;;;;;;7.28;100.00;93575.75;5035253;28;20202;-62
2022/04/10 08:25:08;;;;;;;1.90;1.30;;;;;;;7.10;100.00;93587.47;5034498;28;20206;-63
2022/04/10 08:27:34;;;;;;;2.10;1.20;;;;;;;7.01;100.00;93575.69;5035264;28;20186;-61
2022/04/10 08:30:00;;;;;;;1.90;1.60;;;;;;;7.16;100.00;93584.41;5034559;28;20178;-61
2022/04/10 08:32:25;;;;;;;1.93;1.37;;;;;;;6.79;100.00;93577.53;5033491;28;20197;-63
2022/04/10 08:34:52;;;;;;;2.03;1.40;;;;;;;6.62;100.00;93560.56;5034442;28;20183;-63
2022/04/10 08:37:17;;;;;;;1.20;1.10;;;;;;;6.56;100.00;93580.47;5034789;28;20205;-65
2022/04/10 08:39:42;;;;;;;1.40;1.10;;;;;;;6.42;100.00;93574.06;5034336;28;20183;-63
2022/04/10 08:42:08;;;;;;;1.13;1.07;;;;;;;6.33;100.00;93584.97;5034657;28;20207;-64
2022/04/10 08:44:34;;;;;;;2.63;1.20;;;;;;;6.33;100.00;93589.22;5033363;28;20267;-62
2022/04/10 08:47:00;;;;;;;2.07;1.03;;;;;;;6.18;100.00;93596.34;5034570;28;20289;-63
2022/04/10 08:49:29;;;;;;;3.17;0.80;;;;;;;6.01;100.00;93576.00;5032832;28;20178;-63
2022/04/10 08:51:56;;;;;;;0.90;0.70;;;;;;;5.74;100.00;93584.94;5034338;28;20298;-63
2022/04/10 08:54:23;;;;;;;1.30;1.00;;;;;;;5.80;100.00;93591.97;5032705;28;20661;-65
2022/04/10 08:56:52;;;;;;;0.87;0.87;;;;;;;5.71;100.00;93581.88;5032751;28;20208;-62
2022/04/10 08:59:18;;;;;;;1.87;1.47;;;;;;;5.63;100.00;93596.84;5033887;28;20183;-63
2022/04/10 09:01:45;;;;;;;3.37;1.20;;;;;;;5.64;100.00;93594.19;5032511;28;20210;-64
2022/04/10 09:04:12;;;;;;;3.03;0.90;;;;;;;5.47;100.00;93599.00;5033937;28;20682;-64
2022/04/10 09:06:42;;;;;;;0.60;0.60;;;;;;;5.19;100.00;93619.81;5034016;28;20213;-61
2022/04/10 09:09:17;;;;;;;1.73;1.37;;;;;;;5.21;100.00;93615.44;5033625;28;20185;-61
2022/04/10 09:11:43;;;;;;;0.97;0.87;;;;;;;5.18;100.00;93623.25;5033843;28;20201;-62
2022/04/10 09:14:09;;;;;;;1.00;0.97;;;;;;;4.99;100.00;93627.22;5033681;28;20226;-64
2022/04/10 09:16:34;;;;;;;1.50;1.40;;;;;;;5.10;100.00;93632.22;5032311;28;20224;-64
2022/04/10 09:19:04;;;;;;;0.90;0.90;;;;;;;5.13;100.00;93622.81;5033631;28;20255;-63
2022/04/10 09:21:43;;;;;;;0.93;0.87;;;;;;;5.07;100.00;93636.69;5033947;28;20203;-64
2022/04/10 09:24:13;;;;;;;1.10;1.00;;;;;;;4.96;100.00;93645.13;5033669;28;20288;-61
2022/04/10 09:26:48;;;;;;;1.30;0.70;;;;;;;4.75;100.00;93643.47;5033703;28;20203;-64
2022/04/10 09:29:15;;;;;;;0.77;0.70;;;;;;;4.72;100.00;93642.00;5033259;28;20635;-62
2022/04/10 09:31:41;;;;;;;1.97;1.47;;;;;;;4.75;100.00;93634.19;5033397;28;20307;-62
2022/04/10 09:34:09;;;;;;;0.87;0.87;;;;;;;4.72;100.00;93639.50;5033327;28;20170;-63
2022/04/10 09:36:34;;;;;;;1.37;1.03;;;;;;;4.78;100.00;93638.22;5031936;28;20206;-61
2022/04/10 09:39:02;;;;;;;1.17;1.10;;;;;;;4.81;100.00;93646.31;5033126;28;20313;-62
2022/04/10 09:41:28;;;;;;;0.80;0.80;;;;;;;4.85;100.00;93655.22;5033242;28;20223;-62
2022/04/10 09:43:58;;;;;;;1.10;0.97;;;;;;;4.85;100.00;93641.81;5031859;28;20210;-64
2022/04/10 09:46:23;;;;;;;0.80;0.80;;;;;;;4.72;100.00;93644.53;5031769;28;20225;-61
2022/04/10 09:48:49;;;;;;;0.80;0.80;;;;;;;4.72;100.00;93658.81;5033410;28;20175;-61
2022/04/10 09:51:14;;;;;;;0.70;0.70;;;;;;;4.64;100.00;93646.84;5033266;28;20218;-61
2022/04/10 09:53:40;;;;;;;1.63;1.30;;;;;;;4.80;100.00;93648.94;5033060;28;20185;-64
2022/04/10 09:56:07;;;;;;;1.30;1.10;;;;;;;4.81;100.00;93650.53;5031610;28;20214;-62
2022/04/10 09:58:34;;;;;;;0.93;0.87;;;;;;;4.67;100.00;93653.34;5033173;28;20269;-61
2022/04/10 10:01:02;;;;;;;0.60;0.60;;;;;;;4.63;100.00;93636.88;5032891;28;20209;-61
2022/04/10 10:03:29;;;;;;;1.03;0.93;;;;;;;4.70;100.00;93643.84;5032746;28;20205;-63
2022/04/10 10:05:56;;;;;;;0.93;0.90;;;;;;;4.91;100.00;93654.72;5031335;28;20227;-60
2022/04/10 10:08:23;;;;;;;0.80;0.80;;;;;;;4.94;100.00;93646.16;5031625;28;20186;-64
2022/04/10 10:10:49;;;;;;;0.70;0.70;;;;;;;4.83;100.00;93636.91;5032389;28;20588;-63
2022/04/10 10:13:15;;;;;;;0.50;0.50;;;;;;;4.77;100.00;93639.09;5032818;28;20194;-62
2022/04/10 10:15:42;;;;;;;0.87;0.60;;;;;;;4.68;100.00;93639.84;5032591;28;20206;-62
2022/04/10 10:18:12;;;;;;;0.60;0.60;;;;;;;4.76;100.00;93638.34;5032528;28;20644;-61
2022/04/10 10:20:40;;;;;;;0.80;0.60;;;;;;;4.78;100.00;93640.72;5030970;28;20251;-61
2022/04/10 10:23:11;;;;;;;1.90;0.40;;;;;;;4.63;100.00;93635.16;5031043;28;20566;-62
2022/04/10 10:25:43;;;;;;;0.60;0.40;;;;;;;4.49;100.00;93632.94;5032610;28;20262;-64
2022/04/10 10:28:43;;;;;;;0.47;0.33;;;;;;;4.62;100.00;93631.06;5031157;28;20199;-61
2022/04/10 10:31:31;;;;;;;0.50;0.43;;;;;;;4.70;100.00;93628.75;5032473;28;20259;-64
2022/04/10 10:34:06;;;;;;;0.60;0.50;;;;;;;4.62;100.00;93630.25;5032539;28;20182;-63
2022/04/10 10:36:32;;;;;;;0.50;0.50;;;;;;;4.64;100.00;93638.50;5032351;28;20269;-63
2022/04/10 10:38:58;;;;;;;1.10;0.80;;;;;;;4.48;100.00;93630.53;5032161;28;20178;-62
2022/04/10 10:41:23;;;;;;;0.73;0.73;;;;;;;4.61;100.00;93628.66;5032180;28;20202;-61
2022/04/10 10:43:49;;;;;;;1.00;0.70;;;;;;;4.43;100.00;93622.53;5032035;28;20202;-64
2022/04/10 10:46:22;;;;;;;1.70;1.00;;;;;;;4.56;100.00;93621.47;5031931;28;20213;-60
2022/04/10 10:48:50;;;;;;;1.23;0.70;;;;;;;4.50;100.00;93616.13;5031871;28;20233;-62
2022/04/10 10:51:15;;;;;;;1.17;0.90;;;;;;;4.61;100.00;93618.59;5031953;28;20210;-62
2022/04/10 10:53:48;;;;;;;0.83;0.83;;;;;;;4.67;100.00;93613.88;5031835;28;20187;-61
2022/04/10 10:56:31;;;;;;;0.70;0.67;;;;;;;4.72;100.00;93609.28;5032010;28;20216;-65
2022/04/10 10:59:22;;;;;;;1.67;1.07;;;;;;;4.63;100.00;93597.41;5032067;28;20178;-62
2022/04/10 11:02:08;;;;;;;1.67;1.13;;;;;;;4.51;100.00;93598.38;5032161;28;20333;-63
2022/04/10 11:04:44;;;;;;;5.17;1.93;;;;;;;4.48;100.00;93602.88;5030537;28;20212;-63
2022/04/10 11:07:28;;;;;;;4.60;1.60;;;;;;;4.59;100.00;93606.13;5031900;28;20205;-63
2022/04/10 11:10:01;;;;;;;1.40;1.17;;;;;;;4.51;100.00;93610.16;5031709;28;20164;-64
2022/04/10 11:12:54;;;;;;;1.17;1.00;;;;;;;4.37;100.00;93600.38;5032274;28;20224;-65
2022/04/10 11:15:21;;;;;;;1.17;0.90;;;;;;;4.43;100.00;93594.84;5030540;28;20241;-66
2022/04/10 11:17:48;;;;;;;1.73;1.00;;;;;;;4.50;100.00;93596.78;5032159;28;20185;-61
2022/04/10 11:20:16;;;;;;;1.40;1.13;;;;;;;4.69;100.00;93589.38;5031828;28;20190;-64
2022/04/10 11:22:59;;;;;;;0.83;0.83;;;;;;;4.79;100.00;93592.78;5030641;28;20183;-61
2022/04/10 11:25:28;;;;;;;0.70;0.60;;;;;;;4.72;100.00;93606.78;5031623;28;20202;-61
2022/04/10 11:27:53;;;;;;;3.07;0.80;;;;;;;4.82;100.00;93607.66;5032362;28;20265;-64
2022/04/10 11:30:29;;;;;;;1.00;0.90;;;;;;;4.56;100.00;93603.88;5031505;28;20288;-64
2022/04/10 11:33:05;;;;;;;1.27;0.90;;;;;;;4.58;100.00;93609.56;5032124;28;20672;-64
2022/04/10 11:35:34;;;;;;;2.23;1.23;;;;;;;4.50;100.00;93596.00;5031648;28;20281;-61